createdAt,value
2022-10-04T00:00:03.921Z,0
2022-10-04T00:16:04.150Z,0
2022-10-04T00:31:01.338Z,0
2022-10-04T00:46:03.440Z,0
2022-10-04T01:00:00.556Z,0
2022-10-04T01:16:03.177Z,0
2022-10-04T01:31:00.154Z,0
2022-10-04T01:46:02.426Z,0
2022-10-04T02:00:04.413Z,0
2022-10-04T02:16:01.718Z,0
2022-10-04T02:31:03.979Z,0
2022-10-04T02:46:01.094Z,0
2022-10-04T03:00:03.015Z,0
2022-10-04T03:16:00.391Z,0
2022-10-04T03:31:02.872Z,0
2022-10-04T03:46:04.746Z,0
2022-10-04T04:00:01.494Z,0
2022-10-04T04:16:04.042Z,0
2022-10-04T04:31:01.198Z,0
2022-10-04T04:46:26.051Z,0
2022-10-04T05:00:00.223Z,0
2022-10-04T05:16:02.728Z,2
2022-10-04T05:30:59.971Z,7
2022-10-04T05:46:02.231Z,12
2022-10-04T06:00:04.872Z,20
2022-10-04T06:16:01.802Z,24
2022-10-04T06:31:04.398Z,34
2022-10-04T06:46:01.945Z,247
2022-10-04T07:00:03.005Z,217
2022-10-04T07:16:00.482Z,140
2022-10-04T07:31:02.809Z,147
2022-10-04T07:45:59.984Z,169
2022-10-04T08:00:02.179Z,171
2022-10-04T08:16:04.718Z,254
2022-10-04T08:31:01.837Z,366
2022-10-04T08:46:04.019Z,226
2022-10-04T09:00:01.133Z,283
2022-10-04T09:16:15.790Z,271
2022-10-04T09:31:00.904Z,340
2022-10-04T09:46:05.329Z,290
2022-10-04T10:00:04.745Z,395
2022-10-04T10:16:01.472Z,452
2022-10-04T10:31:02.795Z,384
2022-10-04T10:46:04.225Z,346
2022-10-04T11:00:02.672Z,364
2022-10-04T11:16:02.292Z,478
2022-10-04T11:31:04.622Z,414
2022-10-04T11:46:01.809Z,282
2022-10-04T12:00:03.635Z,442
2022-10-04T12:16:01.098Z,478
2022-10-04T12:31:03.314Z,481
2022-10-04T12:46:00.771Z,442
2022-10-04T13:00:02.708Z,416
2022-10-04T13:31:02.293Z,385
2022-10-04T13:46:04.467Z,377
2022-10-04T14:00:01.345Z,380
2022-10-04T14:16:03.934Z,340
2022-10-04T14:31:00.952Z,310
2022-10-04T14:46:03.346Z,277
2022-10-04T15:00:00.462Z,230
2022-10-04T15:16:02.717Z,147
2022-10-04T15:31:00.066Z,74
2022-10-04T15:46:03.598Z,37
2022-10-04T16:00:04.303Z,25
2022-10-04T16:16:01.686Z,15
2022-10-04T16:31:03.962Z,8
2022-10-04T16:46:00.999Z,1
2022-10-04T17:00:03.202Z,0
2022-10-04T17:16:00.611Z,0
2022-10-04T17:31:02.966Z,0
2022-10-04T17:46:00.372Z,0
2022-10-04T18:00:02.540Z,0
2022-10-04T18:15:59.769Z,0
2022-10-04T18:31:02.158Z,0
2022-10-04T18:46:04.185Z,0
2022-10-04T19:00:00.940Z,0
2022-10-04T19:16:03.460Z,0
2022-10-04T19:31:01.009Z,0
2022-10-04T19:46:03.170Z,0
2022-10-04T20:00:01.417Z,0
2022-10-04T20:16:02.956Z,0
2022-10-04T20:31:00.141Z,0
2022-10-04T20:46:02.370Z,0
2022-10-04T21:00:04.316Z,0
2022-10-04T21:16:01.615Z,0
2022-10-04T21:31:03.699Z,0
2022-10-04T21:46:00.967Z,0
2022-10-04T22:00:03.119Z,0
2022-10-04T22:16:00.550Z,0
2022-10-04T22:31:03.006Z,0
2022-10-04T22:46:00.291Z,0
2022-10-04T23:00:02.198Z,0
2022-10-04T23:16:04.664Z,0
2022-10-04T23:31:01.786Z,0
2022-10-04T23:46:04.280Z,0
